Time;durP1;ratioP1;P1;durP2;ratioP2;P2;SDS_P1;SDS_P2;PMS_P1;PMS_P2;Temp;Humidity;BMP_temperature;BMP_pressure;BME280_temperature;BME280_humidity;BME280_pressure;Samples;Min_cycle;Max_cycle;Signal;HPM_P1;HPM_P2
2023/10/23 00:01:39;;;;;;;12.45;9.73;;;7.10;99.90;;;;;;6184479;23;20940;-93
2023/10/23 00:04:06;;;;;;;9.88;8.55;;;7.60;99.90;;;;;;6182730;23;20379;-95
2023/10/23 00:06:32;;;;;;;8.75;7.80;;;6.80;99.90;;;;;;6184848;23;20368;-94
2023/10/23 00:08:58;;;;;;;8.15;7.35;;;7.00;99.90;;;;;;6182410;23;20439;-94
2023/10/23 00:11:29;;;;;;;9.45;8.45;;;6.80;99.90;;;;;;6184376;23;20368;-94
2023/10/23 00:13:55;;;;;;;13.15;10.68;;;6.80;99.90;;;;;;6183935;23;20379;-94
2023/10/23 00:16:22;;;;;;;10.32;9.15;;;6.90;99.90;;;;;;6213392;23;20365;-93
2023/10/23 00:18:52;;;;;;;11.13;9.27;;;7.00;99.90;;;;;;6188887;23;20374;-94
2023/10/23 00:21:18;;;;;;;29.97;12.60;;;6.50;99.90;;;;;;6187691;23;20436;-95
2023/10/23 00:23:44;;;;;;;12.07;10.35;;;6.70;99.90;;;;;;6189065;23;20448;-93
2023/10/23 00:26:09;;;;;;;10.95;9.82;;;6.70;99.90;;;;;;6186678;23;20370;-94
2023/10/23 00:28:35;;;;;;;9.60;8.50;;;7.00;99.90;;;;;;6189066;23;20373;-94
2023/10/23 00:31:01;;;;;;;10.43;9.30;;;6.90;99.90;;;;;;6187417;23;20916;-94
2023/10/23 00:33:29;;;;;;;12.27;10.48;;;6.70;99.90;;;;;;6187883;23;20373;-94
2023/10/23 00:35:55;;;;;;;15.68;12.07;;;6.70;99.90;;;;;;6187593;23;20763;-95
2023/10/23 00:38:23;;;;;;;14.43;11.77;;;6.70;99.90;;;;;;6186559;23;20373;-95
2023/10/23 00:40:52;;;;;;;12.80;11.25;;;6.10;99.90;;;;;;6187999;23;20504;-95
2023/10/23 00:43:22;;;;;;;15.43;10.80;;;6.70;99.90;;;;;;6185928;23;21228;-94
2023/10/23 00:45:59;;;;;;;21.80;12.07;;;6.50;99.90;;;;;;6188526;23;20857;-95
2023/10/23 00:48:44;;;;;;;11.93;10.70;;;6.60;99.90;;;;;;6186532;23;20378;-95
2023/10/23 00:51:39;;;;;;;13.10;11.25;;;6.80;99.90;;;;;;6186624;23;20541;-95
2023/10/23 00:54:46;;;;;;;15.75;12.02;;;6.40;99.90;;;;;;6221997;23;20366;-95
2023/10/23 00:57:55;;;;;;;;;;;;;;;;;;;;;
2023/10/23 08:12:37;;;;;;;;;;;;;;;;;;;;;
2023/10/23 08:15:30;;;;;;;37.53;30.55;;;8.00;99.90;;;;;;6201555;23;20374;-96
2023/10/23 08:17:56;;;;;;;40.15;29.50;;;8.00;99.90;;;;;;6153576;23;20373;-95
2023/10/23 08:20:22;;;;;;;24.98;21.80;;;8.00;99.90;;;;;;6152300;23;20432;-95
2023/10/23 08:22:48;;;;;;;30.33;25.48;;;8.40;99.90;;;;;;6154608;23;20369;-94
2023/10/23 08:25:14;;;;;;;25.20;21.70;;;8.50;99.90;;;;;;6152509;23;20361;-93
2023/10/23 08:27:39;;;;;;;32.50;27.03;;;8.70;99.90;;;;;;6153460;23;20381;-94
2023/10/23 08:30:06;;;;;;;26.77;22.33;;;8.70;99.90;;;;;;6154019;23;20857;-93
2023/10/23 08:32:35;;;;;;;28.13;24.50;;;8.70;99.90;;;;;;6152433;23;20866;-93
2023/10/23 08:35:00;;;;;;;32.83;26.60;;;9.00;99.90;;;;;;6154650;23;20369;-93
2023/10/23 08:37:26;;;;;;;24.03;21.37;;;9.20;99.90;;;;;;6152953;23;20465;-91
2023/10/23 08:39:52;;;;;;;27.02;23.80;;;9.20;99.90;;;;;;6155034;23;20366;-93
2023/10/23 08:42:17;;;;;;;19.17;17.17;;;9.30;99.90;;;;;;6153228;23;20390;-94
2023/10/23 08:44:45;;;;;;;19.40;17.40;;;10.00;99.90;;;;;;6154841;23;20377;-94
2023/10/23 08:47:15;;;;;;;26.15;21.27;;;9.60;99.90;;;;;;6154609;23;20706;-94
2023/10/23 08:49:41;;;;;;;20.58;18.00;;;9.70;99.90;;;;;;6153496;23;20432;-93
2023/10/23 08:52:10;;;;;;;17.17;14.93;;;9.60;99.90;;;;;;6154530;23;20369;-93
2023/10/23 08:54:36;;;;;;;20.83;18.63;;;9.80;99.90;;;;;;6152945;23;20362;-93
2023/10/23 08:57:02;;;;;;;15.93;14.23;;;10.00;99.90;;;;;;6155205;23;20807;-94
2023/10/23 08:59:28;;;;;;;19.85;17.75;;;10.00;99.90;;;;;;6153072;23;20381;-93
2023/10/23 09:01:55;;;;;;;17.73;16.13;;;10.50;99.90;;;;;;6154853;23;20480;-92
2023/10/23 09:04:20;;;;;;;17.08;15.18;;;10.40;99.90;;;;;;6178783;23;20380;-92
2023/10/23 09:06:47;;;;;;;16.57;14.80;;;10.60;99.90;;;;;;6153344;23;20377;-93
2023/10/23 09:09:13;;;;;;;22.00;19.98;;;10.50;99.90;;;;;;6155110;23;21078;-93
2023/10/23 09:11:43;;;;;;;17.23;15.65;;;10.90;99.90;;;;;;6152616;23;20481;-92
2023/10/23 09:14:10;;;;;;;20.20;18.10;;;10.70;99.90;;;;;;6182166;23;20380;-91
2023/10/23 09:16:36;;;;;;;26.88;24.48;;;11.10;99.90;;;;;;6180833;23;20376;-92
2023/10/23 09:19:03;;;;;;;25.88;23.50;;;11.30;99.90;;;;;;6184072;23;20598;-93
2023/10/23 09:21:31;;;;;;;19.58;17.83;;;11.10;99.90;;;;;;6182729;23;20426;-93
2023/10/23 09:24:00;;;;;;;18.25;16.45;;;11.50;99.90;;;;;;6183703;23;21239;-92
2023/10/23 09:26:26;;;;;;;13.82;12.55;;;11.30;99.90;;;;;;6184264;23;20370;-91
2023/10/23 09:28:52;;;;;;;13.82;12.48;;;11.90;99.90;;;;;;6183069;23;20454;-91
2023/10/23 09:31:20;;;;;;;12.20;11.00;;;11.70;99.90;;;;;;6184432;23;20454;-92
2023/10/23 09:33:48;;;;;;;11.25;10.15;;;12.00;99.90;;;;;;6182730;23;20459;-92
2023/10/23 09:36:14;;;;;;;13.10;11.80;;;12.20;99.90;;;;;;6183784;23;20371;-92
2023/10/23 09:38:42;;;;;;;11.27;10.18;;;12.50;99.90;;;;;;6183302;23;20950;-92
2023/10/23 09:41:12;;;;;;;10.57;9.57;;;12.30;99.90;;;;;;6183849;23;20477;-91
2023/10/23 09:43:47;;;;;;;11.05;9.50;;;12.40;99.90;;;;;;6184310;23;20367;-91
2023/10/23 09:46:14;;;;;;;10.80;9.30;;;12.80;99.90;;;;;;6182236;23;20380;-92
2023/10/23 09:48:44;;;;;;;10.98;9.95;;;13.20;99.90;;;;;;6184483;23;21049;-92
2023/10/23 09:51:14;;;;;;;11.13;10.10;;;12.90;99.90;;;;;;6182027;23;20883;-92
2023/10/23 09:53:52;;;;;;;11.05;10.05;;;13.40;99.90;;;;;;6184615;23;20368;-92
2023/10/23 09:56:21;;;;;;;7.53;6.40;;;13.30;99.90;;;;;;6183641;23;20363;-92
2023/10/23 09:58:59;;;;;;;8.40;7.43;;;13.40;99.90;;;;;;6182889;23;20382;-91
2023/10/23 10:01:35;;;;;;;8.95;8.05;;;14.40;99.90;;;;;;6184605;23;20392;-93
2023/10/23 10:04:26;;;;;;;9.15;7.75;;;14.00;99.90;;;;;;6182299;23;20371;-91
2023/10/23 10:07:00;;;;;;;7.22;6.50;;;13.80;99.90;;;;;;6163428;23;20848;-95
2023/10/23 10:09:27;;;;;;;7.50;6.03;;;13.90;99.90;;;;;;6183355;23;20379;-91
2023/10/23 10:11:56;;;;;;;6.13;5.53;;;14.20;99.90;;;;;;6182493;23;20375;-92
2023/10/23 10:14:24;;;;;;;5.93;4.97;;;14.20;99.90;;;;;;6184199;23;20426;-91
2023/10/23 10:16:52;;;;;;;8.18;5.72;;;14.30;99.90;;;;;;6182598;23;20363;-91
2023/10/23 10:19:19;;;;;;;5.32;4.53;;;14.40;99.90;;;;;;6183249;23;20376;-92
2023/10/23 10:21:54;;;;;;;5.97;4.55;;;14.60;99.90;;;;;;6182648;23;20447;-92
2023/10/23 10:24:20;;;;;;;4.65;4.15;;;14.50;99.90;;;;;;6183586;23;20443;-95
2023/10/23 10:26:48;;;;;;;4.53;3.70;;;14.60;99.90;;;;;;6183495;23;20375;-92
2023/10/23 10:29:14;;;;;;;5.03;3.95;;;15.20;99.90;;;;;;6181832;23;20368;-93
2023/10/23 10:32:05;;;;;;;4.07;3.00;;;14.90;99.90;;;;;;6184337;23;20411;-92
2023/10/23 10:34:36;;;;;;;4.57;3.35;;;14.60;99.90;;;;;;6181600;23;20371;-91
2023/10/23 10:37:04;;;;;;;4.38;3.42;;;15.20;99.90;;;;;;6182730;23;20411;-93
2023/10/23 10:39:52;;;;;;;4.22;3.38;;;15.00;99.90;;;;;;6183082;23;20755;-94
2023/10/23 10:42:26;;;;;;;6.00;3.08;;;15.20;99.90;;;;;;6181979;23;20395;-91
2023/10/23 10:45:09;;;;;;;6.13;3.63;;;15.40;99.90;;;;;;6184368;23;22551;-96
2023/10/23 10:47:46;;;;;;;5.75;3.92;;;15.40;99.90;;;;;;6181594;23;20968;-92
2023/10/23 10:50:12;;;;;;;4.63;3.03;;;15.00;99.90;;;;;;6183585;23;20371;-93
2023/10/23 10:52:43;;;;;;;4.00;2.80;;;15.40;99.90;;;;;;6182655;23;20372;-91
2023/10/23 10:55:10;;;;;;;4.15;2.72;;;15.40;99.90;;;;;;6182263;23;20364;-92
2023/10/23 10:57:41;;;;;;;4.80;3.22;;;15.40;99.90;;;;;;6183830;23;20375;-92
2023/10/23 11:00:07;;;;;;;3.70;3.35;;;15.50;99.90;;;;;;6181584;23;20614;-92
2023/10/23 11:02:33;;;;;;;3.65;2.33;;;15.60;99.90;;;;;;6183792;23;20474;-92
2023/10/23 11:04:58;;;;;;;3.13;2.57;;;15.60;99.90;;;;;;6180190;23;20403;-93
2023/10/23 11:07:26;;;;;;;4.05;2.65;;;15.90;99.90;;;;;;6185503;23;20372;-92
2023/10/23 11:09:52;;;;;;;4.15;1.75;;;16.50;99.90;;;;;;6182813;23;20377;-91
2023/10/23 11:12:18;;;;;;;2.83;1.27;;;15.70;99.90;;;;;;6186800;23;20390;-95
2023/10/23 11:14:47;;;;;;;3.20;1.58;;;15.90;99.90;;;;;;6187748;23;20948;-94
2023/10/23 11:17:14;;;;;;;2.22;1.08;;;15.80;99.90;;;;;;6186078;23;20381;-92
2023/10/23 11:19:42;;;;;;;2.57;0.80;;;16.10;99.90;;;;;;6189066;23;20461;-95
2023/10/23 11:22:12;;;;;;;2.40;0.60;;;16.10;99.90;;;;;;6188244;23;20440;-93
2023/10/23 11:24:47;;;;;;;1.92;0.73;;;15.90;99.90;;;;;;6190340;23;20767;-95
2023/10/23 11:27:13;;;;;;;2.70;0.95;;;15.80;99.90;;;;;;6189943;23;20398;-93
2023/10/23 11:29:39;;;;;;;3.70;1.30;;;16.20;99.90;;;;;;6187944;23;20381;-92
2023/10/23 11:32:06;;;;;;;2.90;1.40;;;15.90;99.90;;;;;;6187873;23;20424;-92
2023/10/23 11:34:32;;;;;;;2.75;1.15;;;16.20;99.90;;;;;;6186714;23;20834;-92
2023/10/23 11:37:03;;;;;;;3.58;1.30;;;15.90;99.90;;;;;;6213243;23;20370;-93
2023/10/23 11:39:29;;;;;;;2.08;1.20;;;16.30;99.90;;;;;;6186215;23;20385;-92
2023/10/23 11:41:57;;;;;;;3.22;1.20;;;16.20;99.90;;;;;;6193229;23;20425;-91
2023/10/23 11:44:27;;;;;;;3.05;1.20;;;16.40;99.90;;;;;;6188795;23;20435;-93
2023/10/23 11:46:54;;;;;;;2.90;0.90;;;16.50;99.90;;;;;;6189926;23;20388;-94
2023/10/23 11:49:22;;;;;;;2.78;1.25;;;15.90;99.90;;;;;;6190160;23;20737;-93
2023/10/23 11:51:48;;;;;;;2.25;1.20;;;16.00;99.90;;;;;;6189174;23;20855;-93
2023/10/23 11:54:16;;;;;;;2.83;1.45;;;16.10;99.90;;;;;;6190427;23;20410;-93
2023/10/23 11:56:45;;;;;;;2.07;1.20;;;15.70;99.90;;;;;;6193076;23;20366;-96
2023/10/23 11:59:16;;;;;;;2.58;0.75;;;15.90;99.90;;;;;;6194741;22;20373;-92
2023/10/23 12:01:42;;;;;;;4.00;1.00;;;16.10;99.90;;;;;;6136231;23;20459;-95
2023/10/23 12:04:08;;;;;;;3.15;1.20;;;15.90;99.90;;;;;;6184427;23;20357;-91
2023/10/23 12:06:37;;;;;;;2.93;1.20;;;15.90;99.90;;;;;;6179489;23;20754;-96
2023/10/23 12:09:10;;;;;;;1.90;0.88;;;15.90;99.90;;;;;;6180994;23;20412;-94
2023/10/23 12:12:06;;;;;;;2.10;0.60;;;16.10;99.90;;;;;;6181962;23;20489;-96
2023/10/23 12:14:32;;;;;;;2.65;0.98;;;16.00;99.90;;;;;;6180334;23;20484;-93
2023/10/23 12:16:58;;;;;;;2.60;0.90;;;16.00;99.90;;;;;;6178022;23;20866;-94
2023/10/23 12:19:23;;;;;;;2.45;0.50;;;16.20;99.90;;;;;;6179577;23;20380;-93
2023/10/23 12:21:49;;;;;;;1.77;0.50;;;16.40;99.90;;;;;;6177738;23;21126;-94
2023/10/23 12:24:15;;;;;;;1.52;0.38;;;16.30;99.90;;;;;;6179679;23;20443;-93
2023/10/23 12:26:40;;;;;;;2.20;0.40;;;16.10;99.90;;;;;;6180758;23;20373;-93
2023/10/23 12:29:09;;;;;;;2.00;0.60;;;15.90;99.90;;;;;;6178507;23;20373;-93
2023/10/23 12:31:35;;;;;;;2.60;0.50;;;16.10;99.90;;;;;;6181175;23;20366;-92
2023/10/23 12:34:00;;;;;;;2.10;0.40;;;15.90;99.90;;;;;;6179023;23;20368;-94
2023/10/23 12:36:26;;;;;;;2.90;0.50;;;16.20;99.90;;;;;;6180005;23;20623;-94
2023/10/23 12:38:52;;;;;;;2.33;0.50;;;15.90;99.90;;;;;;6178812;23;20425;-93
2023/10/23 12:41:18;;;;;;;2.78;0.30;;;16.20;96.50;;;;;;6179657;23;20397;-94
2023/10/23 12:43:47;;;;;;;1.67;0.30;;;15.90;99.90;;;;;;6128854;23;20416;-95
2023/10/23 12:46:13;;;;;;;1.75;0.30;;;16.10;97.80;;;;;;6131031;23;20460;-92
2023/10/23 12:48:43;;;;;;;1.93;0.53;;;16.10;99.90;;;;;;6156145;23;20847;-94
2023/10/23 12:51:09;;;;;;;1.55;0.40;;;16.10;99.90;;;;;;6181095;23;20469;-92
2023/10/23 12:53:35;;;;;;;3.13;0.60;;;15.90;99.40;;;;;;6180613;23;20466;-93
2023/10/23 12:56:01;;;;;;;2.50;0.65;;;15.90;99.90;;;;;;6179413;23;20722;-94
2023/10/23 12:58:27;;;;;;;2.10;0.50;;;15.70;98.40;;;;;;6181515;23;20495;-95
2023/10/23 13:00:53;;;;;;;1.77;0.60;;;15.60;99.90;;;;;;6182976;23;20401;-95
2023/10/23 13:03:19;;;;;;;2.58;0.90;;;15.70;99.90;;;;;;6180343;23;20785;-93
2023/10/23 13:05:44;;;;;;;3.42;1.00;;;15.80;99.90;;;;;;6151858;23;20453;-94
2023/10/23 13:08:10;;;;;;;2.55;1.17;;;16.00;99.90;;;;;;6180226;23;20401;-95
2023/10/23 13:10:47;;;;;;;3.33;1.40;;;15.60;99.90;;;;;;6179660;23;20366;-95
2023/10/23 13:13:13;;;;;;;4.10;1.50;;;15.60;99.90;;;;;;6155028;23;20377;-96
2023/10/23 13:15:38;;;;;;;3.47;1.40;;;15.30;99.90;;;;;;6179452;23;20411;-93
2023/10/23 13:18:04;;;;;;;3.33;1.60;;;15.90;99.90;;;;;;6178115;23;20373;-94
2023/10/23 13:20:30;;;;;;;3.47;1.67;;;15.60;99.90;;;;;;6158771;23;20373;-94
2023/10/23 13:22:55;;;;;;;4.95;1.58;;;15.60;99.90;;;;;;6179847;23;20376;-93
2023/10/23 13:25:30;;;;;;;4.07;1.10;;;15.60;99.90;;;;;;6191215;23;20437;-96
2023/10/23 13:27:56;;;;;;;3.65;1.17;;;15.60;99.90;;;;;;6177280;23;20366;-95
2023/10/23 13:30:21;;;;;;;4.63;1.50;;;15.80;99.90;;;;;;6183382;23;20376;-95
2023/10/23 13:32:48;;;;;;;2.33;1.20;;;15.80;99.90;;;;;;6188862;23;20362;-96
2023/10/23 13:35:15;;;;;;;3.50;1.52;;;15.30;99.90;;;;;;6131524;23;20456;-94
2023/10/23 13:37:41;;;;;;;3.72;1.60;;;15.90;99.90;;;;;;6177847;23;20369;-93
2023/10/23 13:40:07;;;;;;;3.33;1.85;;;15.80;99.90;;;;;;6181216;23;20400;-93
2023/10/23 13:42:34;;;;;;;3.45;2.05;;;15.50;99.90;;;;;;6177608;23;20397;-94
2023/10/23 13:45:00;;;;;;;5.00;3.70;;;15.60;99.90;;;;;;6180050;23;20431;-92
2023/10/23 13:47:26;;;;;;;5.93;5.32;;;15.70;99.90;;;;;;6181564;23;20750;-93
2023/10/23 13:49:55;;;;;;;6.73;6.00;;;15.80;99.90;;;;;;6177357;23;20703;-92
2023/10/23 13:52:21;;;;;;;6.57;5.88;;;15.80;99.90;;;;;;6184235;23;20373;-93
2023/10/23 13:54:47;;;;;;;6.10;5.55;;;15.60;99.90;;;;;;6180943;23;20416;-94
2023/10/23 13:57:12;;;;;;;5.90;5.33;;;15.40;99.90;;;;;;6179587;23;20756;-93
2023/10/23 13:59:40;;;;;;;6.55;5.57;;;15.40;99.90;;;;;;6179649;23;20392;-94
2023/10/23 14:02:06;;;;;;;6.60;5.43;;;15.20;99.90;;;;;;6154867;23;20730;-94
2023/10/23 14:04:32;;;;;;;6.95;6.10;;;15.10;99.90;;;;;;6186912;23;20385;-95
2023/10/23 14:06:57;;;;;;;7.23;6.20;;;15.40;99.90;;;;;;6183340;23;20373;-94
2023/10/23 14:09:23;;;;;;;8.20;6.80;;;15.20;99.90;;;;;;6183424;23;20377;-95
2023/10/23 14:11:49;;;;;;;7.60;6.90;;;15.40;99.90;;;;;;6189297;23;20434;-94
2023/10/23 14:14:14;;;;;;;7.80;7.00;;;15.10;99.90;;;;;;6177521;23;20388;-94
2023/10/23 14:16:40;;;;;;;8.13;7.33;;;15.50;99.90;;;;;;6179607;23;20835;-94
2023/10/23 14:19:11;;;;;;;8.43;7.53;;;15.10;99.90;;;;;;6185747;23;20798;-96
2023/10/23 14:21:37;;;;;;;8.50;7.70;;;15.00;99.90;;;;;;6187939;23;20424;-96
2023/10/23 14:24:20;;;;;;;8.18;7.35;;;14.90;99.90;;;;;;6183208;23;20373;-95
2023/10/23 14:26:46;;;;;;;8.98;8.07;;;14.90;99.90;;;;;;6181984;23;20384;-95
2023/10/23 14:29:27;;;;;;;9.40;8.50;;;14.80;99.90;;;;;;6184692;23;20421;-96
2023/10/23 14:31:52;;;;;;;9.48;8.48;;;14.90;99.90;;;;;;6181518;23;20392;-93
2023/10/23 14:34:18;;;;;;;9.13;8.23;;;15.20;99.90;;;;;;6178375;23;20858;-95
2023/10/23 14:37:09;;;;;;;9.38;8.38;;;14.90;99.90;;;;;;6126086;23;20439;-95
2023/10/23 14:39:35;;;;;;;8.30;7.50;;;14.80;99.90;;;;;;6143946;23;20683;-94
2023/10/23 14:42:04;;;;;;;7.53;6.83;;;14.80;99.90;;;;;;6182795;23;20438;-96
2023/10/23 14:44:31;;;;;;;6.03;5.47;;;14.70;99.90;;;;;;6186210;23;20392;-93
2023/10/23 14:46:56;;;;;;;6.88;5.75;;;14.90;99.90;;;;;;6175776;23;20869;-94
2023/10/23 14:49:22;;;;;;;6.75;5.00;;;14.90;99.90;;;;;;6180049;23;20365;-93
2023/10/23 14:51:51;;;;;;;6.87;4.90;;;15.00;99.90;;;;;;6176901;23;20404;-96
2023/10/23 14:54:16;;;;;;;6.55;4.95;;;14.70;99.90;;;;;;6184974;23;20377;-93
2023/10/23 14:56:42;;;;;;;5.57;4.90;;;14.80;99.90;;;;;;6177514;23;20746;-95
2023/10/23 14:59:08;;;;;;;6.20;4.38;;;14.80;99.90;;;;;;6177377;23;20968;-93
2023/10/23 15:01:34;;;;;;;6.90;4.95;;;14.70;99.90;;;;;;6156574;23;20416;-94
2023/10/23 15:04:00;;;;;;;4.68;4.10;;;14.60;99.90;;;;;;6180207;23;20366;-94
2023/10/23 15:06:26;;;;;;;4.57;3.60;;;14.50;99.90;;;;;;6181528;23;20384;-94
2023/10/23 15:08:52;;;;;;;5.35;4.00;;;14.40;99.90;;;;;;6180525;23;20378;-93
2023/10/23 15:11:21;;;;;;;5.78;3.90;;;14.40;99.90;;;;;;6191496;23;20381;-96
2023/10/23 15:13:47;;;;;;;4.40;3.63;;;14.20;99.90;;;;;;6186642;23;20388;-94
2023/10/23 15:16:23;;;;;;;4.57;3.78;;;14.20;99.90;;;;;;6182657;23;20369;-96
2023/10/23 15:18:50;;;;;;;5.00;3.28;;;14.00;99.90;;;;;;6186624;23;20388;-95
2023/10/23 15:21:16;;;;;;;5.22;3.50;;;14.30;99.90;;;;;;6179425;23;20486;-93
2023/10/23 15:23:42;;;;;;;4.17;3.57;;;14.30;99.90;;;;;;6176452;23;20392;-96
2023/10/23 15:26:08;;;;;;;5.40;3.70;;;13.90;99.90;;;;;;6180280;23;20420;-93
2023/10/23 15:28:34;;;;;;;5.47;4.20;;;14.20;99.90;;;;;;6176674;23;20467;-93
2023/10/23 15:31:01;;;;;;;5.13;4.47;;;13.80;99.90;;;;;;6151731;23;20404;-94
2023/10/23 15:33:28;;;;;;;6.95;4.60;;;14.10;99.90;;;;;;6182243;23;20699;-95
2023/10/23 15:36:00;;;;;;;4.90;4.38;;;13.60;99.90;;;;;;6151825;23;20479;-94
2023/10/23 15:38:29;;;;;;;6.25;5.40;;;13.60;99.90;;;;;;6183880;23;20370;-94
2023/10/23 15:41:07;;;;;;;6.45;5.80;;;13.70;99.90;;;;;;6180245;23;20389;-96
2023/10/23 15:43:34;;;;;;;6.20;5.57;;;13.40;99.90;;;;;;6182263;23;20381;-93
2023/10/23 15:46:00;;;;;;;7.35;5.53;;;13.50;99.90;;;;;;6179992;23;20842;-94
2023/10/23 15:50:58;;;;;;;7.57;6.50;;;13.10;99.90;;;;;;6152349;23;20409;-96
2023/10/23 15:53:29;;;;;;;7.10;5.95;;;13.30;99.90;;;;;;6099622;23;20519;-94
2023/10/23 15:55:56;;;;;;;8.82;6.15;;;13.30;99.90;;;;;;6129366;23;20386;-95
2023/10/23 15:58:42;;;;;;;6.63;5.35;;;12.90;99.90;;;;;;6077147;23;20402;-96
2023/10/23 16:01:11;;;;;;;7.28;5.35;;;13.20;99.90;;;;;;6099888;23;20398;-96
2023/10/23 16:04:06;;;;;;;6.57;5.80;;;12.60;99.90;;;;;;6106577;23;20424;-95
2023/10/23 16:06:36;;;;;;;6.05;5.28;;;12.70;99.90;;;;;;6085591;23;20686;-94
2023/10/23 16:09:09;;;;;;;6.80;5.82;;;12.60;99.90;;;;;;6102216;23;20371;-95
2023/10/23 16:11:34;;;;;;;8.20;6.07;;;12.40;99.90;;;;;;6099780;23;20822;-95
2023/10/23 16:14:00;;;;;;;6.95;6.00;;;12.50;99.90;;;;;;6104013;23;20387;-94
2023/10/23 16:16:26;;;;;;;7.83;7.00;;;12.60;99.90;;;;;;6098585;23;21046;-94
2023/10/23 16:18:51;;;;;;;8.38;7.40;;;12.60;99.90;;;;;;6097790;23;20379;-93
2023/10/23 16:21:17;;;;;;;8.20;7.40;;;12.60;99.90;;;;;;6101362;23;20741;-94
2023/10/23 16:23:43;;;;;;;9.00;8.10;;;12.20;99.90;;;;;;6096120;23;20379;-91
2023/10/23 16:26:09;;;;;;;9.80;8.80;;;13.00;99.90;;;;;;6099845;23;20375;-91
2023/10/23 16:28:35;;;;;;;9.63;8.20;;;12.30;99.90;;;;;;6098515;23;20412;-93
2023/10/23 16:31:01;;;;;;;10.02;9.02;;;12.10;99.90;;;;;;6100688;23;20441;-93
2023/10/23 16:33:26;;;;;;;10.70;9.30;;;12.20;99.90;;;;;;6098884;23;20373;-93
2023/10/23 16:35:52;;;;;;;12.07;9.63;;;12.00;99.90;;;;;;6101999;23;20363;-90
2023/10/23 16:38:18;;;;;;;11.00;9.90;;;11.90;99.90;;;;;;6101405;23;20477;-91
2023/10/23 16:40:44;;;;;;;13.40;12.00;;;12.20;99.90;;;;;;6101311;23;20433;-92
2023/10/23 16:43:13;;;;;;;14.40;11.00;;;12.00;99.90;;;;;;6101177;23;20375;-92
2023/10/23 16:45:39;;;;;;;12.35;10.88;;;11.80;99.90;;;;;;6098180;23;20431;-92
2023/10/23 16:48:05;;;;;;;13.00;10.77;;;12.30;99.90;;;;;;6101142;23;20374;-91
2023/10/23 16:50:30;;;;;;;12.65;11.00;;;11.70;99.90;;;;;;6098521;23;20391;-91
2023/10/23 16:53:00;;;;;;;12.13;10.63;;;11.70;99.90;;;;;;6101169;23;20685;-91
2023/10/23 16:55:27;;;;;;;13.73;11.05;;;11.60;99.90;;;;;;6100113;23;20506;-92
2023/10/23 16:57:53;;;;;;;12.40;11.10;;;11.70;99.90;;;;;;6100019;23;20382;-94
2023/10/23 17:00:19;;;;;;;14.03;11.37;;;11.90;99.90;;;;;;6108419;23;20387;-94
2023/10/23 17:02:45;;;;;;;13.45;11.30;;;11.30;99.90;;;;;;6100282;23;20961;-91
2023/10/23 17:05:11;;;;;;;13.35;11.80;;;11.50;99.90;;;;;;6101048;23;20375;-93
2023/10/23 17:07:50;;;;;;;13.90;11.93;;;11.40;99.90;;;;;;6090383;23;20382;-93
2023/10/23 17:10:20;;;;;;;12.23;11.02;;;11.40;99.90;;;;;;6102612;23;20405;-94
2023/10/23 17:12:46;;;;;;;12.70;11.40;;;11.30;99.90;;;;;;6096995;23;20426;-93
2023/10/23 17:15:12;;;;;;;13.30;11.80;;;11.40;99.90;;;;;;6100427;23;20374;-93
2023/10/23 17:17:40;;;;;;;12.73;11.30;;;11.40;99.90;;;;;;6101508;23;20829;-94
2023/10/23 17:20:06;;;;;;;14.60;12.65;;;11.20;99.90;;;;;;6124419;23;20383;-91
2023/10/23 17:22:33;;;;;;;14.13;12.25;;;11.20;99.90;;;;;;6101192;23;20745;-95
2023/10/23 17:24:58;;;;;;;16.02;13.02;;;11.40;99.90;;;;;;6098723;23;20374;-91
2023/10/23 17:27:24;;;;;;;15.13;12.80;;;11.10;99.90;;;;;;6105198;23;20379;-92
2023/10/23 17:29:50;;;;;;;15.63;13.40;;;11.20;99.90;;;;;;6099519;23;20378;-94
2023/10/23 17:32:17;;;;;;;16.17;13.88;;;11.10;99.90;;;;;;6104050;23;20367;-93
2023/10/23 17:34:42;;;;;;;18.13;15.40;;;11.00;99.90;;;;;;6100184;23;20375;-93
2023/10/23 17:37:08;;;;;;;19.00;15.23;;;11.10;99.90;;;;;;6150424;23;20371;-90
2023/10/23 17:39:34;;;;;;;19.03;15.50;;;10.90;99.90;;;;;;6101996;23;20422;-93
2023/10/23 17:42:00;;;;;;;18.70;15.17;;;11.40;99.90;;;;;;6103060;23;20395;-92
2023/10/23 17:44:26;;;;;;;18.20;15.32;;;11.00;99.90;;;;;;6106045;23;20408;-95
2023/10/23 17:46:55;;;;;;;17.17;15.32;;;10.50;99.90;;;;;;6099886;23;20366;-93
2023/10/23 17:49:21;;;;;;;17.98;15.43;;;11.10;99.90;;;;;;6102946;23;20453;-91
2023/10/23 17:51:47;;;;;;;18.52;15.93;;;11.10;99.90;;;;;;6105600;23;20454;-94
2023/10/23 17:54:16;;;;;;;20.10;16.10;;;10.90;99.90;;;;;;6107883;23;20922;-94
2023/10/23 17:56:42;;;;;;;19.77;16.38;;;10.90;99.90;;;;;;6103914;23;20367;-94
2023/10/23 17:59:08;;;;;;;19.40;16.75;;;11.10;99.90;;;;;;6108049;23;20367;-94
2023/10/23 18:01:33;;;;;;;18.77;16.27;;;11.00;99.90;;;;;;6107452;23;20409;-94
2023/10/23 18:04:04;;;;;;;19.45;16.40;;;11.00;99.90;;;;;;6110166;23;20375;-96
2023/10/23 18:06:51;;;;;;;17.42;14.98;;;10.90;99.90;;;;;;6137736;23;20354;-91
2023/10/23 18:09:17;;;;;;;17.08;14.80;;;11.00;99.90;;;;;;6111593;23;20371;-94
2023/10/23 18:11:52;;;;;;;18.83;14.68;;;10.90;99.90;;;;;;6105512;23;20386;-94
2023/10/23 18:14:27;;;;;;;16.53;14.47;;;10.90;99.90;;;;;;6105084;23;20700;-96
2023/10/23 18:16:56;;;;;;;14.88;13.30;;;11.30;99.90;;;;;;6105490;23;20389;-95
2023/10/23 18:19:38;;;;;;;16.73;13.38;;;10.90;99.90;;;;;;6110686;23;20374;-96
2023/10/23 18:22:07;;;;;;;16.38;13.98;;;11.00;99.90;;;;;;6108333;23;20398;-94
2023/10/23 18:24:33;;;;;;;17.35;14.77;;;11.00;99.90;;;;;;6105316;23;20409;-93
2023/10/23 18:26:58;;;;;;;16.42;13.07;;;10.90;99.90;;;;;;6104696;23;20884;-96
2023/10/23 18:29:24;;;;;;;15.60;12.65;;;10.90;99.90;;;;;;6107802;23;20403;-96
2023/10/23 18:31:56;;;;;;;14.15;12.60;;;11.20;99.90;;;;;;6104243;23;20434;-95
2023/10/23 18:34:22;;;;;;;15.10;11.70;;;11.20;99.90;;;;;;6107529;23;20439;-93
2023/10/23 18:36:47;;;;;;;12.17;10.80;;;10.70;99.90;;;;;;6111178;23;20898;-95
2023/10/23 18:39:13;;;;;;;12.65;10.85;;;10.80;99.90;;;;;;6111302;23;20374;-95
2023/10/23 18:41:39;;;;;;;13.15;11.02;;;10.90;99.90;;;;;;6104757;23;20466;-93
2023/10/23 18:44:04;;;;;;;13.70;10.27;;;11.00;99.90;;;;;;6111589;23;20375;-96
2023/10/23 18:46:42;;;;;;;12.65;9.73;;;10.90;99.90;;;;;;6106447;23;20376;-96
2023/10/23 18:49:11;;;;;;;12.48;9.88;;;10.90;99.90;;;;;;6111922;23;20387;-95
2023/10/23 18:51:37;;;;;;;11.35;9.73;;;10.90;99.90;;;;;;6082294;23;20383;-94
2023/10/23 18:54:03;;;;;;;10.13;9.00;;;11.60;99.90;;;;;;6108868;23;20366;-95
2023/10/23 18:56:31;;;;;;;11.43;9.15;;;10.90;99.90;;;;;;6105720;23;20371;-95
2023/10/23 18:59:08;;;;;;;11.35;9.40;;;11.20;99.90;;;;;;6110628;23;20367;-95
2023/10/23 19:01:37;;;;;;;10.87;8.93;;;10.90;99.90;;;;;;6108607;23;20418;-96
2023/10/23 19:04:03;;;;;;;10.23;8.50;;;11.00;99.90;;;;;;6108806;23;20398;-93
2023/10/23 19:06:29;;;;;;;9.63;7.93;;;10.90;99.90;;;;;;6105226;23;20371;-91
2023/10/23 19:09:27;;;;;;;9.23;7.10;;;10.90;99.90;;;;;;6105483;23;20381;-95
2023/10/23 19:11:52;;;;;;;7.65;6.43;;;10.90;99.90;;;;;;6104817;23;20414;-93
2023/10/23 19:14:27;;;;;;;7.72;6.05;;;11.10;99.90;;;;;;6109516;23;20367;-94
2023/10/23 19:17:00;;;;;;;7.45;5.63;;;10.90;99.90;;;;;;6109250;23;20421;-93
2023/10/23 19:19:50;;;;;;;7.77;5.17;;;11.20;99.90;;;;;;6106452;23;20371;-95
2023/10/23 19:22:18;;;;;;;6.53;4.70;;;10.90;99.90;;;;;;6108192;23;20465;-92
2023/10/23 19:24:44;;;;;;;6.27;4.63;;;11.20;99.90;;;;;;6109768;23;20387;-95
2023/10/23 19:27:12;;;;;;;6.80;4.33;;;11.00;99.90;;;;;;6109882;23;20383;-95
2023/10/23 19:30:01;;;;;;;6.90;4.47;;;11.00;99.90;;;;;;6109067;23;20418;-94
2023/10/23 19:32:27;;;;;;;6.65;4.53;;;11.40;99.90;;;;;;6108269;23;20505;-94
2023/10/23 19:34:53;;;;;;;7.90;4.85;;;10.90;99.90;;;;;;6111948;23;20378;-94
2023/10/23 19:37:25;;;;;;;7.22;5.00;;;10.90;99.90;;;;;;6106366;23;20355;-93
2023/10/23 19:40:11;;;;;;;6.60;4.22;;;10.90;99.90;;;;;;6109315;23;20375;-94
2023/10/23 19:42:42;;;;;;;5.30;4.13;;;10.80;99.90;;;;;;6105381;23;20403;-94
2023/10/23 19:45:08;;;;;;;5.93;4.35;;;10.90;99.90;;;;;;6103464;23;20860;-94
2023/10/23 19:47:38;;;;;;;7.07;4.30;;;10.90;99.90;;;;;;6105068;23;20378;-94
2023/10/23 19:50:13;;;;;;;5.18;4.30;;;10.80;99.90;;;;;;6105437;23;20469;-96
2023/10/23 19:52:41;;;;;;;6.27;4.60;;;10.90;99.90;;;;;;6103989;23;20415;-94
2023/10/23 19:55:07;;;;;;;6.60;4.43;;;11.20;99.90;;;;;;6106918;23;20375;-95
2023/10/23 19:57:33;;;;;;;6.57;4.57;;;10.90;99.90;;;;;;6107262;23;20379;-93
2023/10/23 20:00:00;;;;;;;5.97;4.40;;;10.90;99.90;;;;;;6104421;23;20873;-93
2023/10/23 20:02:26;;;;;;;8.85;4.60;;;11.00;99.90;;;;;;6113876;23;20401;-94
2023/10/23 20:04:52;;;;;;;5.72;4.47;;;10.70;99.90;;;;;;6100672;23;20458;-95
2023/10/23 20:07:18;;;;;;;6.38;4.15;;;11.30;99.90;;;;;;6108459;23;20402;-94